Hauptseite
METAR-TAF:

METAR-TAF

Flughäfen :

El Borma, Tunesien

Breite: 31-41N, Länge: 009-10E, Höhe: 258 m

Beobachtung

Neuester Wetterbericht von vor 5 Stunden und 40 Minuten, um 19:00 UTC
Wind 4 kt aus Nord/Nordost
Temperatur 16°C
Luftfeuchtigkeit 36%
Luftdruck 1022 hPa

METAR: DTTR 251900Z AUTO 03004KT NCD 16/01 Q1022

Zeit: 01:40 (00:40 UTC)

Prognose

Neuester Wetterbericht von vor 40 Minuten, um 00:00 UTC
Gültige Prognose vom 26 um 01 UTC bis 26 um 10 UTC
Wind 5 kt aus Nord/Nordost
Sichtweite: 8000 m
Wahrscheinlichkeit 30%
vom 26 um 02 UTC bis 26 um 07 UTC
Sichtweite: 4000 m
feuchter Dunst

TAF: DTTR 260000Z 2601/2610 03005KT 8000 NSC PROB30 2602/2607 4000 BR

Wetterbeobachtungen und Prognosen von mehr als 4000 Flughäfen (METAR und TAF Bericht).

Die verfügbaren Stationen werden durch gelbe und rote Markierungen auf der Karte dargestellt.

Führen Sie die Maus auf sie, um den Namen der Station zu sehen.

Darauf klicken, um die Beobachtung von Wetterbeobachtungen und Prognosen zu sehen.

Um die Karte zu ändern : klicken Sie auf den grünen Tasten mit einem schwarzen Kreuz Zum Vergrößern, auf den grünen Button mit einem Gedankenstrich zu verkleinern, oder auf die grünen Pfeile für benachbarte Karten.


METAR-TAF: